Time;durP1;ratioP1;P1;durP2;ratioP2;P2;SDS_P1;SDS_P2;PMS_P1;PMS_P2;Temp;Humidity;BMP_temperature;BMP_pressure;BME280_temperature;BME280_humidity;BME280_pressure;Samples;Min_cycle;Max_cycle;Signal;HPM_P1;HPM_P2
2022/08/19 00:00:37;;;;;;;17.10;13.20;;;;;;;;;;6193815;28;20019;-78
2022/08/19 00:03:37;;;;;;;21.85;13.25;;;;;;;;;;6176610;28;20046;-78
2022/08/19 00:06:38;;;;;;;16.87;13.37;;;;;;;;;;6184663;28;20033;-78
2022/08/19 00:09:39;;;;;;;19.52;14.20;;;;;;;;;;6195287;28;20058;-79
2022/08/19 00:12:39;;;;;;;21.83;13.63;;;;;;;;;;6192639;28;20026;-79
2022/08/19 00:15:39;;;;;;;19.73;14.20;;;;;;;;;;6195974;28;20069;-79
2022/08/19 00:18:39;;;;;;;16.70;13.07;;;;;;;;;;6192987;28;20019;-79
2022/08/19 00:21:40;;;;;;;21.47;13.53;;;;;;;;;;6186042;28;20118;-77
2022/08/19 00:24:41;;;;;;;17.07;12.53;;;;;;;;;;6190453;28;20021;-77
2022/08/19 00:27:41;;;;;;;19.53;13.17;;;;;;;;;;6176537;28;20027;-76
2022/08/19 00:30:41;;;;;;;19.73;14.10;;;;;;;;;;6190103;28;20019;-77
2022/08/19 00:33:41;;;;;;;18.70;12.75;;;;;;;;;;6207578;28;20041;-79
2022/08/19 00:36:42;;;;;;;18.73;13.77;;;;;;;;;;6177397;28;20538;-78
2022/08/19 00:39:42;;;;;;;22.73;14.57;;;;;;;;;;6184311;28;20028;-78
2022/08/19 00:42:43;;;;;;;20.23;14.27;;;;;;;;;;6191376;28;20021;-78
2022/08/19 00:45:43;;;;;;;18.80;13.90;;;;;;;;;;6176927;28;20394;-79
2022/08/19 00:48:44;;;;;;;21.03;14.60;;;;;;;;;;6178639;28;20265;-78
2022/08/19 00:51:46;;;;;;;24.10;14.63;;;;;;;;;;6192711;28;20018;-78
2022/08/19 00:54:47;;;;;;;;;;;;;;;;;;6190893;28;20053;-79
2022/08/19 00:57:51;;;;;;;24.20;15.98;;;;;;;;;;6185992;28;19949;-79
2022/08/19 01:00:51;;;;;;;17.83;14.35;;;;;;;;;;6198606;28;20022;-79
2022/08/19 01:03:51;;;;;;;20.13;13.70;;;;;;;;;;6193421;28;20109;-79
2022/08/19 01:06:51;;;;;;;19.40;14.37;;;;;;;;;;6182968;28;20575;-79
2022/08/19 01:09:52;;;;;;;17.13;12.77;;;;;;;;;;6181742;28;20471;-79
2022/08/19 01:12:54;;;;;;;21.03;14.53;;;;;;;;;;6191622;28;20481;-79
2022/08/19 01:16:00;;;;;;;17.73;13.57;;;;;;;;;;6189506;28;20018;-79
2022/08/19 01:19:00;;;;;;;20.15;14.02;;;;;;;;;;6198211;28;20022;-79
2022/08/19 01:22:03;;;;;;;22.03;15.60;;;;;;;;;;6182225;28;20372;-79
2022/08/19 01:25:03;;;;;;;20.40;15.18;;;;;;;;;;6195901;28;20038;-79
2022/08/19 01:28:04;;;;;;;20.77;14.90;;;;;;;;;;6190811;28;20076;-79
2022/08/19 01:31:05;;;;;;;21.73;14.67;;;;;;;;;;6189423;28;20030;-79
2022/08/19 01:34:06;;;;;;;20.13;14.55;;;;;;;;;;6181889;28;20042;-78
2022/08/19 01:37:11;;;;;;;18.30;13.50;;;;;;;;;;6183784;28;20023;-79
2022/08/19 01:40:11;;;;;;;22.55;15.77;;;;;;;;;;6175158;28;20262;-79
2022/08/19 01:43:11;;;;;;;18.27;15.07;;;;;;;;;;6182358;28;20010;-78
2022/08/19 01:46:12;;;;;;;23.57;15.20;;;;;;;;;;6183645;28;20034;-79
2022/08/19 01:49:12;;;;;;;19.87;15.10;;;;;;;;;;6196692;28;20026;-79
2022/08/19 01:52:12;;;;;;;22.80;15.00;;;;;;;;;;6190386;28;20030;-79
2022/08/19 01:55:17;;;;;;;21.83;15.07;;;;;;;;;;6186694;28;20046;-79
2022/08/19 01:58:22;;;;;;;23.13;14.88;;;;;;;;;;6182441;28;20061;-79
2022/08/19 02:01:22;;;;;;;23.67;15.00;;;;;;;;;;6174573;28;20038;-79
2022/08/19 02:04:25;;;;;;;20.17;14.70;;;;;;;;;;6176565;28;20018;-78
2022/08/19 02:07:25;;;;;;;23.13;16.17;;;;;;;;;;6188587;28;20157;-79
2022/08/19 02:10:25;;;;;;;20.20;16.50;;;;;;;;;;6192354;28;20340;-79
2022/08/19 02:13:25;;;;;;;20.43;15.07;;;;;;;;;;6187889;28;20441;-79
2022/08/19 02:16:26;;;;;;;21.53;15.30;;;;;;;;;;6184037;28;20545;-79
2022/08/19 02:19:26;;;;;;;22.00;16.23;;;;;;;;;;6185609;28;20014;-79
2022/08/19 02:22:26;;;;;;;19.47;15.27;;;;;;;;;;6193152;28;20014;-79
2022/08/19 02:25:27;;;;;;;20.77;14.70;;;;;;;;;;6181009;28;20435;-79
2022/08/19 02:28:27;;;;;;;19.97;14.43;;;;;;;;;;6182418;28;20019;-78
2022/08/19 02:31:27;;;;;;;17.13;14.43;;;;;;;;;;6183428;28;20101;-78
2022/08/19 02:34:28;;;;;;;20.70;16.00;;;;;;;;;;6193651;28;20478;-79
2022/08/19 02:40:52;;;;;;;20.77;14.95;;;;;;;;;;6187679;28;20022;-79
2022/08/19 02:43:52;;;;;;;21.75;16.05;;;;;;;;;;6187662;28;20098;-79
2022/08/19 02:46:52;;;;;;;25.53;16.73;;;;;;;;;;6193009;28;20523;-79
2022/08/19 02:49:53;;;;;;;22.95;16.20;;;;;;;;;;6201000;28;20076;-79
2022/08/19 02:52:53;;;;;;;21.53;15.23;;;;;;;;;;6187466;28;20085;-79
2022/08/19 02:55:53;;;;;;;25.73;15.47;;;;;;;;;;6191105;28;20027;-79
2022/08/19 02:58:54;;;;;;;23.43;15.80;;;;;;;;;;6194792;28;20038;-79
2022/08/19 03:01:55;;;;;;;26.05;16.17;;;;;;;;;;6185693;28;20019;-78
2022/08/19 03:04:55;;;;;;;19.88;14.88;;;;;;;;;;6185777;28;20029;-79
2022/08/19 03:07:55;;;;;;;26.60;17.33;;;;;;;;;;6185601;28;20491;-79
2022/08/19 03:10:55;;;;;;;20.10;14.53;;;;;;;;;;6186771;28;20471;-79
2022/08/19 03:13:56;;;;;;;19.93;13.83;;;;;;;;;;6200894;28;20050;-78
2022/08/19 03:16:57;;;;;;;23.53;15.60;;;;;;;;;;6177603;28;20027;-79
2022/08/19 03:19:57;;;;;;;23.52;14.85;;;;;;;;;;6189492;28;20101;-79
2022/08/19 03:22:57;;;;;;;18.77;15.13;;;;;;;;;;6185960;28;20022;-79
2022/08/19 03:25:57;;;;;;;19.00;15.47;;;;;;;;;;6183781;28;20029;-78
2022/08/19 03:29:01;;;;;;;23.93;16.80;;;;;;;;;;6201696;28;20065;-79
2022/08/19 03:32:03;;;;;;;21.42;15.88;;;;;;;;;;6183384;28;20090;-78
2022/08/19 03:35:03;;;;;;;27.15;16.15;;;;;;;;;;6196320;28;20034;-78
2022/08/19 03:38:05;;;;;;;24.47;16.30;;;;;;;;;;6184019;28;20027;-79
2022/08/19 03:41:06;;;;;;;;;;;;;;;;;;6196887;28;20025;-79
2022/08/19 03:44:07;;;;;;;27.65;15.98;;;;;;;;;;6178063;28;19906;-79
2022/08/19 03:47:07;;;;;;;20.77;16.92;;;;;;;;;;6195885;28;20459;-78
2022/08/19 03:50:08;;;;;;;25.13;15.67;;;;;;;;;;6199708;28;20018;-78
2022/08/19 03:53:09;;;;;;;22.55;15.93;;;;;;;;;;6195492;28;20036;-79
2022/08/19 03:56:09;;;;;;;21.43;15.90;;;;;;;;;;6184796;28;20451;-79
2022/08/19 03:59:11;;;;;;;20.25;15.50;;;;;;;;;;6150604;28;1095928;-78
2022/08/19 04:02:11;;;;;;;21.52;14.75;;;;;;;;;;6182971;28;20042;-78
2022/08/19 04:05:13;;;;;;;18.50;15.03;;;;;;;;;;6189929;28;20027;-78
2022/08/19 04:08:18;;;;;;;27.27;16.50;;;;;;;;;;6182586;28;20026;-79
2022/08/19 04:11:23;;;;;;;23.70;15.15;;;;;;;;;;6187676;28;20022;-79
2022/08/19 04:14:24;;;;;;;22.98;15.73;;;;;;;;;;6192368;28;20065;-78
2022/08/19 04:17:25;;;;;;;22.73;16.23;;;;;;;;;;6188900;28;20434;-79
2022/08/19 04:20:25;;;;;;;21.67;15.95;;;;;;;;;;6177389;28;20019;-79
2022/08/19 04:23:27;;;;;;;25.13;16.43;;;;;;;;;;6196921;28;20120;-79
2022/08/19 04:26:31;;;;;;;20.80;14.45;;;;;;;;;;6198072;28;20100;-79
2022/08/19 04:29:32;;;;;;;22.58;14.38;;;;;;;;;;6190283;28;20114;-78
2022/08/19 04:32:32;;;;;;;18.93;14.53;;;;;;;;;;6186534;28;20033;-79
2022/08/19 04:35:40;;;;;;;21.60;15.27;;;;;;;;;;6199132;28;20050;-78
2022/08/19 04:38:40;;;;;;;19.13;14.57;;;;;;;;;;6184288;28;20015;-78
2022/08/19 04:44:59;;;;;;;20.70;14.98;;;;;;;;;;6185295;28;20046;-79
2022/08/19 04:48:01;;;;;;;22.53;14.07;;;;;;;;;;6191748;28;20030;-79
2022/08/19 04:51:06;;;;;;;19.60;14.32;;;;;;;;;;6186527;28;20478;-79
2022/08/19 04:54:06;;;;;;;18.85;14.13;;;;;;;;;;6185500;28;20022;-78
2022/08/19 04:57:09;;;;;;;23.37;14.57;;;;;;;;;;6188380;28;20049;-79
2022/08/19 05:00:10;;;;;;;20.13;13.55;;;;;;;;;;6198976;28;20038;-79
2022/08/19 05:03:10;;;;;;;22.83;13.67;;;;;;;;;;6195186;28;20023;-79
2022/08/19 05:06:11;;;;;;;21.63;13.67;;;;;;;;;;6192549;28;20108;-79
2022/08/19 05:09:12;;;;;;;;;;;;;;;;;;6190605;28;20034;-79
2022/08/19 05:12:12;;;;;;;20.60;13.13;;;;;;;;;;6195628;28;19902;-79
2022/08/19 05:15:12;;;;;;;20.27;11.73;;;;;;;;;;6196521;28;20026;-79
2022/08/19 05:24:50;;;;;;;18.25;12.25;;;;;;;;;;6188487;28;20043;-79
2022/08/19 05:27:50;;;;;;;17.53;11.57;;;;;;;;;;6187952;28;20050;-77
2022/08/19 05:30:50;;;;;;;17.87;13.00;;;;;;;;;;6189242;28;20037;-78
2022/08/19 05:33:51;;;;;;;16.47;10.97;;;;;;;;;;6184172;28;20475;-78
2022/08/19 05:36:56;;;;;;;20.07;12.07;;;;;;;;;;6193328;28;20014;-78
2022/08/19 05:39:57;;;;;;;16.02;11.50;;;;;;;;;;6184489;28;20025;-78
2022/08/19 05:42:57;;;;;;;15.87;12.03;;;;;;;;;;6183609;28;20024;-78
2022/08/19 05:45:57;;;;;;;20.80;11.40;;;;;;;;;;6196163;28;20761;-78
2022/08/19 05:48:58;;;;;;;15.27;10.98;;;;;;;;;;6195267;28;20494;-77
2022/08/19 05:51:59;;;;;;;15.50;10.90;;;;;;;;;;6189969;28;20490;-77
2022/08/19 05:54:59;;;;;;;13.93;10.13;;;;;;;;;;6193881;28;20038;-77
2022/08/19 05:58:01;;;;;;;14.40;8.90;;;;;;;;;;6192834;28;20054;-78
2022/08/19 06:01:05;;;;;;;15.93;10.88;;;;;;;;;;6194298;28;20268;-78
2022/08/19 06:04:06;;;;;;;12.45;10.02;;;;;;;;;;6192317;28;20022;-78
2022/08/19 06:07:06;;;;;;;16.95;9.80;;;;;;;;;;6190996;28;20027;-78
2022/08/19 06:10:07;;;;;;;14.77;10.03;;;;;;;;;;6190995;28;20026;-78
2022/08/19 06:13:08;;;;;;;14.68;10.18;;;;;;;;;;6190645;28;20387;-79
2022/08/19 06:16:08;;;;;;;14.10;9.75;;;;;;;;;;6192056;28;20030;-80
2022/08/19 06:19:13;;;;;;;12.27;9.13;;;;;;;;;;6188374;28;20034;-78
2022/08/19 06:22:13;;;;;;;18.10;9.90;;;;;;;;;;6187059;28;20015;-78
2022/08/19 06:25:14;;;;;;;16.33;9.17;;;;;;;;;;6183358;28;20037;-78
2022/08/19 06:28:14;;;;;;;17.05;9.68;;;;;;;;;;6183089;28;20033;-78
2022/08/19 06:31:20;;;;;;;13.18;9.45;;;;;;;;;;6189755;28;20033;-78
2022/08/19 06:34:20;;;;;;;12.57;9.95;;;;;;;;;;6189947;28;20065;-79
2022/08/19 06:37:21;;;;;;;14.18;9.77;;;;;;;;;;6188350;28;20030;-78
2022/08/19 06:40:21;;;;;;;16.40;8.77;;;;;;;;;;6182938;28;20034;-78
2022/08/19 06:43:22;;;;;;;13.23;9.13;;;;;;;;;;6183491;28;20018;-78
2022/08/19 06:46:22;;;;;;;14.27;9.15;;;;;;;;;;6184823;28;20630;-79
2022/08/19 06:49:23;;;;;;;16.33;9.15;;;;;;;;;;6188835;28;20022;-79
2022/08/19 06:52:23;;;;;;;18.25;8.52;;;;;;;;;;6195746;28;20065;-78
2022/08/19 06:55:24;;;;;;;14.03;8.60;;;;;;;;;;6195945;28;20022;-78
2022/08/19 06:58:24;;;;;;;11.17;8.50;;;;;;;;;;6195772;28;20035;-78
2022/08/19 07:01:24;;;;;;;13.18;9.00;;;;;;;;;;6192621;28;20684;-78
2022/08/19 07:04:26;;;;;;;13.17;8.63;;;;;;;;;;6193931;28;20038;-78
2022/08/19 07:07:26;;;;;;;12.68;8.35;;;;;;;;;;6194369;28;20002;-78
2022/08/19 07:10:27;;;;;;;14.43;7.73;;;;;;;;;;6195158;28;20022;-78
2022/08/19 07:13:27;;;;;;;14.53;8.30;;;;;;;;;;6197007;28;20015;-80
2022/08/19 07:16:27;;;;;;;15.90;8.67;;;;;;;;;;6195443;28;20013;-78
2022/08/19 07:19:28;;;;;;;10.90;7.90;;;;;;;;;;6194174;28;20026;-78
2022/08/19 07:22:29;;;;;;;10.80;8.43;;;;;;;;;;6196602;28;20043;-78
2022/08/19 07:25:29;;;;;;;12.13;7.60;;;;;;;;;;6192545;28;20034;-78
2022/08/19 07:28:30;;;;;;;13.15;7.85;;;;;;;;;;6197091;28;20439;-78
2022/08/19 07:31:30;;;;;;;10.95;8.07;;;;;;;;;;6191041;28;20685;-78
2022/08/19 07:34:30;;;;;;;11.57;8.02;;;;;;;;;;6197668;28;20069;-78
2022/08/19 07:37:30;;;;;;;13.95;8.18;;;;;;;;;;6197280;28;20037;-78
2022/08/19 07:40:31;;;;;;;12.63;8.00;;;;;;;;;;6193222;28;20054;-78
2022/08/19 07:43:31;;;;;;;9.07;7.50;;;;;;;;;;6193088;28;20011;-79
2022/08/19 07:46:32;;;;;;;14.10;7.57;;;;;;;;;;6195090;28;20025;-79
2022/08/19 07:49:32;;;;;;;13.38;7.32;;;;;;;;;;6198638;28;20049;-79
2022/08/19 07:52:32;;;;;;;18.77;7.80;;;;;;;;;;6199961;28;20023;-79
2022/08/19 07:55:33;;;;;;;15.03;7.87;;;;;;;;;;6196969;28;20029;-80
2022/08/19 07:58:35;;;;;;;16.40;8.48;;;;;;;;;;6194371;28;20047;-79
2022/08/19 08:01:36;;;;;;;13.57;7.50;;;;;;;;;;6198215;28;20018;-80
2022/08/19 08:11:18;;;;;;;11.43;7.55;;;;;;;;;;6198563;28;20081;-79
2022/08/19 08:14:22;;;;;;;11.82;7.93;;;;;;;;;;6196722;28;20033;-79
2022/08/19 08:17:23;;;;;;;13.90;7.90;;;;;;;;;;6189748;28;20462;-79
2022/08/19 08:20:23;;;;;;;12.90;7.30;;;;;;;;;;6191914;28;20537;-79
2022/08/19 08:23:29;;;;;;;12.60;6.93;;;;;;;;;;6188088;28;20026;-80
2022/08/19 08:26:30;;;;;;;12.93;7.30;;;;;;;;;;6195636;28;20022;-80
2022/08/19 08:29:30;;;;;;;11.60;6.93;;;;;;;;;;6197943;28;20033;-80
2022/08/19 08:32:31;;;;;;;9.43;6.43;;;;;;;;;;6197446;28;20426;-80
2022/08/19 08:35:31;;;;;;;11.90;6.50;;;;;;;;;;6195711;28;20062;-80
2022/08/19 08:38:32;;;;;;;14.23;6.70;;;;;;;;;;6196750;28;20076;-80
2022/08/19 08:41:49;;;;;;;15.73;7.10;;;;;;;;;;6192496;28;20103;-79
2022/08/19 08:44:58;;;;;;;14.48;7.18;;;;;;;;;;6193569;28;20041;-80
2022/08/19 08:48:01;;;;;;;13.38;6.75;;;;;;;;;;6195029;28;20002;-80
2022/08/19 08:51:02;;;;;;;12.70;6.53;;;;;;;;;;6196254;28;20122;-80
2022/08/19 08:54:06;;;;;;;15.40;7.13;;;;;;;;;;6194070;28;20019;-80
2022/08/19 08:57:12;;;;;;;12.40;6.40;;;;;;;;;;6194708;28;20096;-80
2022/08/19 09:00:36;;;;;;;10.20;6.97;;;;;;;;;;6196455;28;20017;-80
2022/08/19 09:03:37;;;;;;;15.23;6.68;;;;;;;;;;6187839;28;20027;-80
2022/08/19 09:06:47;;;;;;;11.93;6.32;;;;;;;;;;6199170;28;20030;-80
2022/08/19 09:09:49;;;;;;;13.02;6.13;;;;;;;;;;6194103;28;20032;-80
2022/08/19 09:13:02;;;;;;;11.88;6.50;;;;;;;;;;6194013;28;20053;-80
2022/08/19 09:16:07;;;;;;;12.52;5.97;;;;;;;;;;6191941;28;20022;-80
2022/08/19 09:19:07;;;;;;;12.02;6.60;;;;;;;;;;6194298;28;20026;-80
2022/08/19 09:22:08;;;;;;;9.90;7.25;;;;;;;;;;6196445;28;20034;-79
2022/08/19 09:25:09;;;;;;;12.00;7.13;;;;;;;;;;6196628;28;20491;-80
2022/08/19 09:28:10;;;;;;;12.13;6.53;;;;;;;;;;6192638;28;20022;-81
2022/08/19 09:31:11;;;;;;;9.85;6.63;;;;;;;;;;6196512;28;20018;-80
2022/08/19 09:34:11;;;;;;;13.63;6.95;;;;;;;;;;6197271;28;20014;-80
2022/08/19 09:37:12;;;;;;;10.57;6.63;;;;;;;;;;6195639;28;20041;-80
2022/08/19 09:40:12;;;;;;;14.82;7.13;;;;;;;;;;6186218;28;20086;-80
2022/08/19 09:43:12;;;;;;;11.57;5.77;;;;;;;;;;6182218;28;20138;-80
2022/08/19 09:46:13;;;;;;;16.87;5.80;;;;;;;;;;6190930;28;20054;-80
2022/08/19 09:49:13;;;;;;;13.38;5.60;;;;;;;;;;6199456;28;20027;-80
2022/08/19 09:52:15;;;;;;;10.03;6.00;;;;;;;;;;6188962;28;20038;-80
2022/08/19 09:55:16;;;;;;;11.68;5.63;;;;;;;;;;6194011;28;20137;-80
2022/08/19 09:58:16;;;;;;;7.93;6.03;;;;;;;;;;6188913;28;20046;-81
2022/08/19 10:01:23;;;;;;;12.13;6.93;;;;;;;;;;6189636;28;20030;-80
2022/08/19 10:05:47;;;;;;;15.13;5.68;;;;;;;;;;6194858;28;20034;-80
2022/08/19 10:07:44;;;;;;;;;;;;;;;;;;6189131;28;20113;-80
2022/08/19 10:10:44;;;;;;;11.35;6.85;;;;;;;;;;6191439;28;19912;-80
2022/08/19 10:13:45;;;;;;;15.38;6.03;;;;;;;;;;6195793;28;20030;-80
2022/08/19 10:16:45;;;;;;;10.53;6.87;;;;;;;;;;6194055;28;20019;-79
2022/08/19 10:19:46;;;;;;;10.13;6.40;;;;;;;;;;6193477;28;20261;-80
2022/08/19 10:22:46;;;;;;;11.52;6.65;;;;;;;;;;6194961;28;20044;-80
2022/08/19 10:25:47;;;;;;;14.38;7.07;;;;;;;;;;6196913;28;20578;-80
2022/08/19 10:28:48;;;;;;;8.75;5.60;;;;;;;;;;6193100;28;20693;-80
2022/08/19 10:31:48;;;;;;;10.43;6.63;;;;;;;;;;6194461;28;20026;-80
2022/08/19 10:34:51;;;;;;;10.17;6.73;;;;;;;;;;6194055;28;20029;-80
2022/08/19 10:37:51;;;;;;;11.25;5.88;;;;;;;;;;6188968;28;20073;-80
2022/08/19 10:40:52;;;;;;;10.53;5.77;;;;;;;;;;6191954;28;20430;-79
2022/08/19 10:43:54;;;;;;;11.57;6.40;;;;;;;;;;6193932;28;20374;-80
2022/08/19 10:46:54;;;;;;;13.20;5.85;;;;;;;;;;6194252;28;20027;-80
2022/08/19 10:53:13;;;;;;;10.77;6.18;;;;;;;;;;6191614;28;20031;-81
2022/08/19 10:59:34;;;;;;;8.77;6.10;;;;;;;;;;6195016;28;20070;-79
2022/08/19 11:02:34;;;;;;;12.13;6.00;;;;;;;;;;6192251;28;20017;-80
2022/08/19 11:05:37;;;;;;;17.23;7.00;;;;;;;;;;6194028;28;20046;-80
2022/08/19 11:08:37;;;;;;;11.20;5.82;;;;;;;;;;6201278;28;21070;-80
2022/08/19 11:11:40;;;;;;;13.90;5.90;;;;;;;;;;6198075;28;20029;-80
2022/08/19 11:14:40;;;;;;;7.68;5.80;;;;;;;;;;6199618;28;20038;-80
2022/08/19 11:17:41;;;;;;;12.57;5.90;;;;;;;;;;6195884;28;20014;-80
2022/08/19 11:20:41;;;;;;;13.18;5.45;;;;;;;;;;6196278;28;20017;-81
2022/08/19 11:23:41;;;;;;;10.57;5.30;;;;;;;;;;6198076;28;20574;-81
2022/08/19 11:26:42;;;;;;;9.60;5.50;;;;;;;;;;6197095;28;20053;-80
2022/08/19 11:29:42;;;;;;;10.65;5.78;;;;;;;;;;6195020;28;20118;-80
2022/08/19 11:32:42;;;;;;;11.57;5.63;;;;;;;;;;6196699;28;20026;-80
2022/08/19 11:35:43;;;;;;;13.50;5.43;;;;;;;;;;6193258;28;20022;-80
2022/08/19 11:38:44;;;;;;;11.00;5.50;;;;;;;;;;6182209;28;20079;-80
2022/08/19 11:41:44;;;;;;;13.60;5.60;;;;;;;;;;6192905;28;20093;-80
2022/08/19 11:44:46;;;;;;;8.23;4.45;;;;;;;;;;6204090;28;20026;-81
2022/08/19 11:47:47;;;;;;;10.48;5.20;;;;;;;;;;6190310;28;20088;-81
2022/08/19 11:50:51;;;;;;;12.00;5.45;;;;;;;;;;6190353;28;20033;-81
2022/08/19 11:53:52;;;;;;;10.90;5.35;;;;;;;;;;6197290;28;20196;-80
2022/08/19 11:56:53;;;;;;;15.48;6.25;;;;;;;;;;6189135;28;20134;-80
2022/08/19 11:59:53;;;;;;;12.40;5.73;;;;;;;;;;6188544;28;20054;-80
2022/08/19 12:02:54;;;;;;;13.20;6.37;;;;;;;;;;6194470;28;20262;-81
2022/08/19 12:05:54;;;;;;;11.18;5.70;;;;;;;;;;6189029;28;20015;-81
2022/08/19 12:08:56;;;;;;;12.95;7.60;;;;;;;;;;6182843;28;20061;-81
2022/08/19 12:11:56;;;;;;;13.23;6.65;;;;;;;;;;6195112;28;20046;-80
2022/08/19 12:14:58;;;;;;;11.80;6.50;;;;;;;;;;6180723;28;20025;-81
2022/08/19 12:17:58;;;;;;;16.75;6.25;;;;;;;;;;6184389;28;20543;-81
2022/08/19 12:21:00;;;;;;;11.13;5.73;;;;;;;;;;6186884;28;20014;-81
2022/08/19 12:24:01;;;;;;;9.98;5.20;;;;;;;;;;6188009;28;20046;-81
2022/08/19 12:27:01;;;;;;;18.35;5.68;;;;;;;;;;6183353;28;20535;-81
2022/08/19 12:30:02;;;;;;;12.60;6.20;;;;;;;;;;6192104;28;20032;-81
2022/08/19 12:33:02;;;;;;;13.00;5.70;;;;;;;;;;6196292;28;20266;-81
2022/08/19 12:36:04;;;;;;;9.65;4.72;;;;;;;;;;6194757;28;20037;-81
2022/08/19 12:39:05;;;;;;;16.00;5.90;;;;;;;;;;6188618;28;20529;-81
2022/08/19 12:42:07;;;;;;;10.98;5.53;;;;;;;;;;6193103;28;20085;-81
2022/08/19 12:45:08;;;;;;;11.40;5.70;;;;;;;;;;6194016;28;20046;-81
2022/08/19 12:48:08;;;;;;;9.48;5.13;;;;;;;;;;6197285;28;20564;-81
2022/08/19 12:51:10;;;;;;;13.40;5.07;;;;;;;;;;6194525;28;20022;-81
2022/08/19 12:54:10;;;;;;;13.30;4.82;;;;;;;;;;6213283;28;20018;-81
2022/08/19 12:57:10;;;;;;;10.10;5.45;;;;;;;;;;6194929;28;20414;-81
2022/08/19 13:00:20;;;;;;;18.13;5.80;;;;;;;;;;6195362;28;20023;-81
2022/08/19 13:03:22;;;;;;;13.50;5.50;;;;;;;;;;6193993;28;20092;-81
2022/08/19 13:06:22;;;;;;;16.23;6.18;;;;;;;;;;6196273;28;20101;-81
2022/08/19 13:09:22;;;;;;;13.13;5.40;;;;;;;;;;6196374;28;20069;-80
2022/08/19 13:12:26;;;;;;;6.70;5.10;;;;;;;;;;6194719;28;20050;-80
2022/08/19 13:15:28;;;;;;;11.38;5.80;;;;;;;;;;6190235;28;20018;-80
2022/08/19 13:18:28;;;;;;;9.95;5.00;;;;;;;;;;6198279;28;20099;-80
2022/08/19 13:21:30;;;;;;;11.27;5.10;;;;;;;;;;6175685;28;20071;-81
2022/08/19 13:24:30;;;;;;;11.25;4.75;;;;;;;;;;6176997;28;20003;-81
2022/08/19 13:27:30;;;;;;;11.40;5.13;;;;;;;;;;6189705;28;20081;-81
2022/08/19 13:33:49;;;;;;;12.20;4.70;;;;;;;;;;6188815;28;20030;-80
2022/08/19 13:36:51;;;;;;;13.40;4.77;;;;;;;;;;6190785;28;20026;-81
2022/08/19 13:39:51;;;;;;;10.45;4.60;;;;;;;;;;6182395;28;20018;-81
2022/08/19 13:42:53;;;;;;;16.25;4.30;;;;;;;;;;6193263;28;20022;-81
2022/08/19 13:45:55;;;;;;;15.25;4.53;;;;;;;;;;6193170;28;20019;-81
2022/08/19 13:48:56;;;;;;;11.68;3.97;;;;;;;;;;6189541;28;20375;-81
2022/08/19 13:51:57;;;;;;;9.15;4.72;;;;;;;;;;6195681;28;20026;-80
2022/08/19 13:54:57;;;;;;;14.48;4.65;;;;;;;;;;6194778;28;20121;-81
2022/08/19 13:58:01;;;;;;;14.95;5.45;;;;;;;;;;6189381;28;20411;-81
2022/08/19 14:01:01;;;;;;;12.30;5.15;;;;;;;;;;6194135;28;20022;-81
2022/08/19 14:04:02;;;;;;;10.23;4.20;;;;;;;;;;6194179;28;20097;-81
2022/08/19 14:07:03;;;;;;;15.80;5.40;;;;;;;;;;6196135;28;20078;-81
2022/08/19 14:10:05;;;;;;;18.45;5.03;;;;;;;;;;6194181;28;20120;-81
2022/08/19 14:13:06;;;;;;;16.08;5.80;;;;;;;;;;6190785;28;20533;-82
2022/08/19 14:16:07;;;;;;;15.80;5.83;;;;;;;;;;6186406;28;20026;-81
2022/08/19 14:19:07;;;;;;;10.30;4.32;;;;;;;;;;6187644;28;20034;-81
2022/08/19 14:22:08;;;;;;;15.90;5.73;;;;;;;;;;6189282;28;20029;-81
2022/08/19 14:25:10;;;;;;;17.80;4.75;;;;;;;;;;6184963;28;20034;-81
2022/08/19 14:28:10;;;;;;;15.45;6.45;;;;;;;;;;6188363;28;20034;-81
2022/08/19 14:31:11;;;;;;;11.17;4.70;;;;;;;;;;6187165;28;20030;-81
2022/08/19 14:34:12;;;;;;;11.50;4.70;;;;;;;;;;6189504;28;20785;-81
2022/08/19 14:37:16;;;;;;;11.80;5.10;;;;;;;;;;6204451;28;20026;-82
2022/08/19 14:40:20;;;;;;;17.60;5.50;;;;;;;;;;6194100;28;20097;-81
2022/08/19 14:43:21;;;;;;;13.95;5.93;;;;;;;;;;6196578;28;20483;-81
2022/08/19 14:46:23;;;;;;;14.38;5.10;;;;;;;;;;6197668;28;20014;-81
2022/08/19 14:49:24;;;;;;;11.57;4.78;;;;;;;;;;6199052;28;20046;-81
2022/08/19 14:52:24;;;;;;;18.03;5.87;;;;;;;;;;6192561;28;20022;-81
2022/08/19 14:55:25;;;;;;;14.55;5.70;;;;;;;;;;6194379;28;20018;-81
2022/08/19 14:58:25;;;;;;;14.15;7.45;;;;;;;;;;6195130;28;20080;-81
2022/08/19 15:01:26;;;;;;;17.52;5.35;;;;;;;;;;6197308;28;20013;-81
2022/08/19 15:04:26;;;;;;;18.40;5.40;;;;;;;;;;6180996;28;20037;-81
2022/08/19 15:07:28;;;;;;;19.60;5.23;;;;;;;;;;6194516;28;20045;-81
2022/08/19 15:10:28;;;;;;;10.98;6.18;;;;;;;;;;6187495;28;20093;-81
2022/08/19 15:13:29;;;;;;;11.50;6.53;;;;;;;;;;6194100;28;20112;-81
2022/08/19 15:16:29;;;;;;;15.02;7.57;;;;;;;;;;6193900;28;20023;-81
2022/08/19 15:19:30;;;;;;;15.27;7.10;;;;;;;;;;6194222;28;20038;-81
2022/08/19 15:22:31;;;;;;;15.10;7.25;;;;;;;;;;6196337;28;20034;-81
2022/08/19 15:25:32;;;;;;;16.08;6.55;;;;;;;;;;6208646;28;20035;-81
2022/08/19 15:28:33;;;;;;;10.95;6.40;;;;;;;;;;6191548;28;20030;-81
2022/08/19 15:31:36;;;;;;;14.10;7.68;;;;;;;;;;6195366;28;20030;-81
2022/08/19 15:34:36;;;;;;;12.52;6.90;;;;;;;;;;6191540;28;20030;-81
2022/08/19 15:37:36;;;;;;;14.20;7.80;;;;;;;;;;6185164;28;20069;-81
2022/08/19 15:40:36;;;;;;;14.67;6.90;;;;;;;;;;6186813;28;20019;-81
2022/08/19 15:43:40;;;;;;;17.08;7.65;;;;;;;;;;6188002;28;20042;-81
2022/08/19 15:46:42;;;;;;;15.50;7.68;;;;;;;;;;6189292;28;20023;-81
2022/08/19 15:49:42;;;;;;;14.18;6.72;;;;;;;;;;6194534;28;20057;-80
2022/08/19 15:52:50;;;;;;;15.03;6.27;;;;;;;;;;6197791;28;20022;-80
2022/08/19 15:55:50;;;;;;;12.38;5.78;;;;;;;;;;6189961;28;20068;-80
2022/08/19 16:08:49;;;;;;;17.42;6.07;;;;;;;;;;6184524;28;20034;-80
2022/08/19 16:11:49;;;;;;;11.43;6.45;;;;;;;;;;6180176;28;20069;-79
2022/08/19 16:14:49;;;;;;;19.10;6.97;;;;;;;;;;6194223;28;20546;-80
2022/08/19 16:17:49;;;;;;;13.35;6.15;;;;;;;;;;6195023;28;20364;-80
2022/08/19 16:20:50;;;;;;;12.83;7.63;;;;;;;;;;6191037;28;20214;-81
2022/08/19 16:23:50;;;;;;;12.57;6.05;;;;;;;;;;6176011;28;20027;-80
2022/08/19 16:26:51;;;;;;;13.73;7.28;;;;;;;;;;6192911;28;20023;-79
2022/08/19 16:29:51;;;;;;;17.42;6.97;;;;;;;;;;6189958;28;20403;-80
2022/08/19 16:32:51;;;;;;;19.50;7.18;;;;;;;;;;6196899;28;20495;-80
2022/08/19 16:35:52;;;;;;;10.03;6.50;;;;;;;;;;6183166;28;20076;-80
2022/08/19 16:38:52;;;;;;;;;;;;;;;;;;6181734;28;20027;-80
2022/08/19 16:41:52;;;;;;;14.93;7.60;;;;;;;;;;6197111;28;19906;-80
2022/08/19 16:44:53;;;;;;;11.98;6.40;;;;;;;;;;6187658;28;20030;-80
2022/08/19 16:47:56;;;;;;;;;;;;;;;;;;6183803;28;20027;-80
2022/08/19 16:50:56;;;;;;;13.60;7.32;;;;;;;;;;6198229;28;19916;-80
2022/08/19 16:53:56;;;;;;;;;;;;;;;;;;6190165;28;20022;-79
2022/08/19 16:56:57;;;;;;;15.50;7.13;;;;;;;;;;6193878;28;19910;-79
2022/08/19 16:59:57;;;;;;;;;;;;;;;;;;6189846;28;20253;-80
2022/08/19 17:03:03;;;;;;;18.80;7.90;;;;;;;;;;6192527;28;19906;-80
2022/08/19 17:06:08;;;;;;;14.80;7.68;;;;;;;;;;6193197;28;20050;-79
2022/08/19 17:09:08;;;;;;;14.27;7.75;;;;;;;;;;6183003;28;20774;-80
2022/08/19 17:12:08;;;;;;;;;;;;;;;;;;6188120;28;20050;-80
2022/08/19 17:15:08;;;;;;;11.88;7.75;;;;;;;;;;6195926;28;19906;-80
2022/08/19 17:18:09;;;;;;;;;;;;;;;;;;6200035;28;20482;-80
2022/08/19 17:21:11;;;;;;;14.30;7.70;;;;;;;;;;6196576;28;19906;-80
2022/08/19 17:24:12;;;;;;;12.98;7.95;;;;;;;;;;6186068;28;20030;-80
2022/08/19 17:27:12;;;;;;;12.40;8.10;;;;;;;;;;6199263;28;20482;-80
2022/08/19 17:30:12;;;;;;;;;;;;;;;;;;6192774;28;20097;-80
2022/08/19 17:33:13;;;;;;;12.25;7.88;;;;;;;;;;6194352;28;19913;-81
2022/08/19 17:36:13;;;;;;;;;;;;;;;;;;6191464;28;20026;-80
2022/08/19 17:39:13;;;;;;;13.75;8.73;;;;;;;;;;6199273;28;20477;-80
2022/08/19 17:42:13;;;;;;;17.77;9.23;;;;;;;;;;6177082;28;20073;-80
2022/08/19 17:45:14;;;;;;;12.40;8.83;;;;;;;;;;6189979;28;20022;-80
2022/08/19 17:48:15;;;;;;;18.00;9.30;;;;;;;;;;6183609;28;20029;-81
2022/08/19 17:51:24;;;;;;;13.85;9.27;;;;;;;;;;6177819;28;20469;-80
2022/08/19 17:54:24;;;;;;;14.48;9.82;;;;;;;;;;6188438;28;20066;-80
2022/08/19 17:57:24;;;;;;;11.23;8.03;;;;;;;;;;6176268;28;20061;-80
2022/08/19 18:00:25;;;;;;;17.87;10.47;;;;;;;;;;6190624;28;20041;-80
2022/08/19 18:03:26;;;;;;;23.47;9.93;;;;;;;;;;6174708;28;20061;-79
2022/08/19 18:06:27;;;;;;;20.13;8.80;;;;;;;;;;6186920;28;20026;-79
2022/08/19 18:09:28;;;;;;;17.55;7.90;;;;;;;;;;6193389;28;20026;-79
2022/08/19 18:12:28;;;;;;;;;;;;;;;;;;6191900;28;20026;-79
2022/08/19 18:15:28;;;;;;;15.48;7.70;;;;;;;;;;6194976;28;19968;-79
2022/08/19 18:18:29;;;;;;;16.70;6.17;;;;;;;;;;6192501;28;20018;-79
2022/08/19 18:21:30;;;;;;;31.80;8.07;;;;;;;;;;6188602;28;20014;-78
2022/08/19 18:24:31;;;;;;;33.40;10.68;;;;;;;;;;6194452;28;20077;-76
2022/08/19 18:27:31;;;;;;;20.53;9.67;;;;;;;;;;6185307;28;20026;-77
